sensor_id;sensor_type;location;lat;lon;timestamp;pressure;altitude;pressure_sealevel;temperature;humidity
81005;BME280;70472;47.592;17.640;2023-07-24T00:00:20;99460.69;;;23.30;75.58
81005;BME280;70472;47.592;17.640;2023-07-24T00:00:52;99460.72;;;23.35;74.95
81005;BME280;70472;47.592;17.640;2023-07-24T00:01:25;99459.38;;;23.37;75.67
81005;BME280;70472;47.592;17.640;2023-07-24T00:01:57;99459.38;;;23.37;76.08
81005;BME280;70472;47.592;17.640;2023-07-24T00:02:29;99453.63;;;23.34;75.70
81005;BME280;70472;47.592;17.640;2023-07-24T00:03:02;99455.00;;;23.36;75.21
81005;BME280;70472;47.592;17.640;2023-07-24T00:03:35;99455.00;;;23.36;76.28
81005;BME280;70472;47.592;17.640;2023-07-24T00:04:07;99458.81;;;23.35;76.12
81005;BME280;70472;47.592;17.640;2023-07-24T00:04:40;99456.91;;;23.36;76.26
81005;BME280;70472;47.592;17.640;2023-07-24T00:05:12;99455.00;;;23.36;74.75
81005;BME280;70472;47.592;17.640;2023-07-24T00:05:44;99455.56;;;23.38;75.28
81005;BME280;70472;47.592;17.640;2023-07-24T00:06:17;99452.00;;;23.38;75.67
81005;BME280;70472;47.592;17.640;2023-07-24T00:06:49;99461.03;;;23.38;75.41
81005;BME280;70472;47.592;17.640;2023-07-24T00:07:21;99457.75;;;23.36;75.78
81005;BME280;70472;47.592;17.640;2023-07-24T00:07:54;99456.63;;;23.32;75.35
81005;BME280;70472;47.592;17.640;2023-07-24T00:08:26;99454.97;;;23.31;76.33
81005;BME280;70472;47.592;17.640;2023-07-24T00:08:58;99450.84;;;23.29;75.75
81005;BME280;70472;47.592;17.640;2023-07-24T00:09:31;99454.97;;;23.31;76.06
81005;BME280;70472;47.592;17.640;2023-07-24T00:10:04;99457.97;;;23.30;76.47
81005;BME280;70472;47.592;17.640;2023-07-24T00:10:37;99455.50;;;23.28;76.46
81005;BME280;70472;47.592;17.640;2023-07-24T00:11:09;99458.25;;;23.28;75.59
81005;BME280;70472;47.592;17.640;2023-07-24T00:11:42;99451.94;;;23.28;76.87
81005;BME280;70472;47.592;17.640;2023-07-24T00:12:14;99451.66;;;23.29;75.57
81005;BME280;70472;47.592;17.640;2023-07-24T00:12:47;99454.97;;;23.26;75.69
81005;BME280;70472;47.592;17.640;2023-07-24T00:13:19;99451.63;;;23.24;76.25
81005;BME280;70472;47.592;17.640;2023-07-24T00:13:52;99452.72;;;23.23;76.43
81005;BME280;70472;47.592;17.640;2023-07-24T00:14:24;99452.72;;;23.23;76.54
81005;BME280;70472;47.592;17.640;2023-07-24T00:14:56;99451.09;;;23.22;76.53
81005;BME280;70472;47.592;17.640;2023-07-24T00:15:29;99451.63;;;23.19;77.10
81005;BME280;70472;47.592;17.640;2023-07-24T00:16:07;99453.28;;;23.20;76.92
81005;BME280;70472;47.592;17.640;2023-07-24T00:16:40;99453.31;;;23.25;75.48
81005;BME280;70472;47.592;17.640;2023-07-24T00:17:12;99454.13;;;23.26;76.04
81005;BME280;70472;47.592;17.640;2023-07-24T00:17:45;99453.84;;;23.27;75.21
81005;BME280;70472;47.592;17.640;2023-07-24T00:18:17;99454.38;;;23.24;75.60
81005;BME280;70472;47.592;17.640;2023-07-24T00:18:49;99455.50;;;23.28;76.18
81005;BME280;70472;47.592;17.640;2023-07-24T00:19:22;99452.50;;;23.30;75.19
81005;BME280;70472;47.592;17.640;2023-07-24T00:19:54;99454.16;;;23.31;75.21
81005;BME280;70472;47.592;17.640;2023-07-24T00:20:26;99454.97;;;23.26;75.42
81005;BME280;70472;47.592;17.640;2023-07-24T00:20:59;99454.97;;;23.26;76.49
81005;BME280;70472;47.592;17.640;2023-07-24T00:21:31;99456.88;;;23.26;76.20
81005;BME280;70472;47.592;17.640;2023-07-24T00:22:04;99449.38;;;23.11;76.04
81005;BME280;70472;47.592;17.640;2023-07-24T00:22:37;99452.16;;;23.16;76.55
81005;BME280;70472;47.592;17.640;2023-07-24T00:23:09;99456.25;;;23.13;76.32
81005;BME280;70472;47.592;17.640;2023-07-24T00:23:41;99448.88;;;23.14;76.58
81005;BME280;70472;47.592;17.640;2023-07-24T00:24:14;99453.81;;;23.17;76.18
81005;BME280;70472;47.592;17.640;2023-07-24T00:24:46;99453.81;;;23.17;75.77
81005;BME280;70472;47.592;17.640;2023-07-24T00:25:18;99444.50;;;23.18;76.24
81005;BME280;70472;47.592;17.640;2023-07-24T00:25:51;99448.91;;;23.19;75.74
81005;BME280;70472;47.592;17.640;2023-07-24T00:26:23;99452.16;;;23.16;76.38
81005;BME280;70472;47.592;17.640;2023-07-24T00:26:55;99456.81;;;23.15;76.19
81005;BME280;70472;47.592;17.640;2023-07-24T00:27:28;99448.06;;;23.13;77.14
81005;BME280;70472;47.592;17.640;2023-07-24T00:28:00;99451.03;;;23.12;77.52
81005;BME280;70472;47.592;17.640;2023-07-24T00:28:33;99454.84;;;23.11;77.42
81005;BME280;70472;47.592;17.640;2023-07-24T00:29:05;99446.38;;;23.12;76.37
81005;BME280;70472;47.592;17.640;2023-07-24T00:29:38;99445.56;;;23.07;76.83
81005;BME280;70472;47.592;17.640;2023-07-24T00:30:10;99452.66;;;23.08;76.70
81005;BME280;70472;47.592;17.640;2023-07-24T00:30:43;99456.50;;;23.12;76.99
81005;BME280;70472;47.592;17.640;2023-07-24T00:31:15;99455.66;;;23.06;76.37
81005;BME280;70472;47.592;17.640;2023-07-24T00:31:48;99447.75;;;23.10;76.70
81005;BME280;70472;47.592;17.640;2023-07-24T00:32:21;99447.47;;;23.11;76.40
81005;BME280;70472;47.592;17.640;2023-07-24T00:32:53;99454.31;;;23.09;77.40
81005;BME280;70472;47.592;17.640;2023-07-24T00:33:27;99451.28;;;23.05;77.62
81005;BME280;70472;47.592;17.640;2023-07-24T00:33:59;99458.66;;;23.05;78.02
81005;BME280;70472;47.592;17.640;2023-07-24T00:34:32;99459.22;;;23.07;77.05
81005;BME280;70472;47.592;17.640;2023-07-24T00:35:05;99460.59;;;23.09;76.85
81005;BME280;70472;47.592;17.640;2023-07-24T00:35:37;99451.53;;;23.04;76.76
81005;BME280;70472;47.592;17.640;2023-07-24T00:36:10;99452.09;;;23.06;76.72
81005;BME280;70472;47.592;17.640;2023-07-24T00:36:44;99454.31;;;23.09;76.07
81005;BME280;70472;47.592;17.640;2023-07-24T00:37:16;99447.75;;;23.10;76.45
81005;BME280;70472;47.592;17.640;2023-07-24T00:37:48;99446.09;;;23.09;76.87
81005;BME280;70472;47.592;17.640;2023-07-24T00:38:21;99452.63;;;23.03;77.64
81005;BME280;70472;47.592;17.640;2023-07-24T00:38:53;99449.88;;;22.98;76.89
81005;BME280;70472;47.592;17.640;2023-07-24T00:39:26;99457.28;;;23.02;77.55
81005;BME280;70472;47.592;17.640;2023-07-24T00:39:58;99450.16;;;23.01;77.57
81005;BME280;70472;47.592;17.640;2023-07-24T00:40:30;99446.63;;;23.01;76.98
81005;BME280;70472;47.592;17.640;2023-07-24T00:41:03;99449.91;;;23.03;76.79
81005;BME280;70472;47.592;17.640;2023-07-24T00:41:35;99455.91;;;23.05;77.97
81005;BME280;70472;47.592;17.640;2023-07-24T00:42:07;99452.09;;;23.06;76.93
81005;BME280;70472;47.592;17.640;2023-07-24T00:42:40;99452.63;;;23.03;77.86
81005;BME280;70472;47.592;17.640;2023-07-24T00:43:12;99453.19;;;23.05;77.91
81005;BME280;70472;47.592;17.640;2023-07-24T00:43:45;99452.09;;;23.06;77.78
81005;BME280;70472;47.592;17.640;2023-07-24T00:44:18;99446.34;;;23.02;77.49
81005;BME280;70472;47.592;17.640;2023-07-24T00:44:52;99449.06;;;23.02;77.13
81005;BME280;70472;47.592;17.640;2023-07-24T00:45:24;99451.00;;;23.02;77.91
81005;BME280;70472;47.592;17.640;2023-07-24T00:45:58;99445.53;;;23.02;77.71
81005;BME280;70472;47.592;17.640;2023-07-24T00:46:30;99448.53;;;23.05;77.13
81005;BME280;70472;47.592;17.640;2023-07-24T00:47:04;99449.63;;;23.04;77.14
81005;BME280;70472;47.592;17.640;2023-07-24T00:47:36;99439.50;;;23.05;76.78
81005;BME280;70472;47.592;17.640;2023-07-24T00:48:09;99445.25;;;23.03;77.34
81005;BME280;70472;47.592;17.640;2023-07-24T00:48:43;99446.88;;;23.04;77.51
81005;BME280;70472;47.592;17.640;2023-07-24T00:49:16;99454.00;;;23.05;76.99
81005;BME280;70472;47.592;17.640;2023-07-24T00:49:50;99452.38;;;23.04;76.51
81005;BME280;70472;47.592;17.640;2023-07-24T00:50:23;99450.97;;;22.97;77.99
81005;BME280;70472;47.592;17.640;2023-07-24T00:50:56;99449.88;;;22.98;78.65
81005;BME280;70472;47.592;17.640;2023-07-24T00:51:29;99456.97;;;22.99;77.54
81005;BME280;70472;47.592;17.640;2023-07-24T00:52:02;99454.56;;;23.02;77.01
81005;BME280;70472;47.592;17.640;2023-07-24T00:52:35;99455.38;;;23.03;76.86
81005;BME280;70472;47.592;17.640;2023-07-24T00:53:08;99450.16;;;23.01;78.19
81005;BME280;70472;47.592;17.640;2023-07-24T00:53:41;99450.16;;;23.01;77.62
81005;BME280;70472;47.592;17.640;2023-07-24T00:54:16;99452.59;;;22.98;77.71
81005;BME280;70472;47.592;17.640;2023-07-24T00:54:49;99448.78;;;22.99;77.96
81005;BME280;70472;47.592;17.640;2023-07-24T00:55:22;99440.56;;;22.99;78.68
81005;BME280;70472;47.592;17.640;2023-07-24T00:55:54;99447.69;;;23.00;78.29
81005;BME280;70472;47.592;17.640;2023-07-24T00:56:28;99446.03;;;22.99;77.15
81005;BME280;70472;47.592;17.640;2023-07-24T00:57:03;99442.75;;;22.97;78.27
81005;BME280;70472;47.592;17.640;2023-07-24T00:57:36;99446.56;;;22.96;77.74
81005;BME280;70472;47.592;17.640;2023-07-24T00:58:11;99450.66;;;22.93;77.92
81005;BME280;70472;47.592;17.640;2023-07-24T00:58:44;99440.84;;;22.97;79.25
81005;BME280;70472;47.592;17.640;2023-07-24T00:59:16;99444.41;;;22.98;77.78
81005;BME280;70472;47.592;17.640;2023-07-24T00:59:49;99444.41;;;22.98;77.41
81005;BME280;70472;47.592;17.640;2023-07-24T01:00:22;99437.56;;;22.95;77.89
81005;BME280;70472;47.592;17.640;2023-07-24T01:00:54;99452.06;;;22.96;78.87
81005;BME280;70472;47.592;17.640;2023-07-24T01:01:28;99445.75;;;22.95;78.40
81005;BME280;70472;47.592;17.640;2023-07-24T01:02:01;99448.72;;;22.93;77.91
81005;BME280;70472;47.592;17.640;2023-07-24T01:02:34;99448.69;;;22.88;79.00
81005;BME280;70472;47.592;17.640;2023-07-24T01:03:07;99445.19;;;22.93;78.57
81005;BME280;70472;47.592;17.640;2023-07-24T01:03:41;99438.88;;;22.92;79.37
81005;BME280;70472;47.592;17.640;2023-07-24T01:04:47;99448.72;;;22.93;78.50
81005;BME280;70472;47.592;17.640;2023-07-24T01:05:20;99445.44;;;22.91;78.86
81005;BME280;70472;47.592;17.640;2023-07-24T01:05:55;99443.81;;;22.90;78.93
81005;BME280;70472;47.592;17.640;2023-07-24T01:06:27;99444.84;;;22.84;78.29
81005;BME280;70472;47.592;17.640;2023-07-24T01:07:01;99442.66;;;22.86;78.28
81005;BME280;70472;47.592;17.640;2023-07-24T01:07:33;99441.06;;;22.90;78.92
81005;BME280;70472;47.592;17.640;2023-07-24T01:08:08;99442.41;;;22.88;78.90
81005;BME280;70472;47.592;17.640;2023-07-24T01:08:40;99444.31;;;22.87;78.78
81005;BME280;70472;47.592;17.640;2023-07-24T01:09:13;99441.81;;;22.86;78.82
81005;BME280;70472;47.592;17.640;2023-07-24T01:09:45;99437.50;;;22.90;78.41
81005;BME280;70472;47.592;17.640;2023-07-24T01:10:18;99438.84;;;22.87;79.45
81005;BME280;70472;47.592;17.640;2023-07-24T01:10:50;99441.59;;;22.87;79.09
81005;BME280;70472;47.592;17.640;2023-07-24T01:11:36;99443.75;;;22.85;78.95
81005;BME280;70472;47.592;17.640;2023-07-24T01:12:35;99442.09;;;22.84;79.24
81005;BME280;70472;47.592;17.640;2023-07-24T01:13:15;99443.19;;;22.83;79.63
81005;BME280;70472;47.592;17.640;2023-07-24T01:14:04;99440.75;;;22.87;79.45
81005;BME280;70472;47.592;17.640;2023-07-24T01:14:49;99433.31;;;22.82;79.73
81005;BME280;70472;47.592;17.640;2023-07-24T01:15:33;99445.94;;;22.83;79.08
81005;BME280;70472;47.592;17.640;2023-07-24T01:16:19;99442.09;;;22.84;79.09
81005;BME280;70472;47.592;17.640;2023-07-24T01:16:56;99437.19;;;22.86;78.97
81005;BME280;70472;47.592;17.640;2023-07-24T01:17:31;99442.38;;;22.83;80.10
81005;BME280;70472;47.592;17.640;2023-07-24T01:18:09;99439.38;;;22.84;79.41
81005;BME280;70472;47.592;17.640;2023-07-24T01:18:43;99438.03;;;22.87;79.48
81005;BME280;70472;47.592;17.640;2023-07-24T01:19:41;99441.06;;;22.90;79.43
81005;BME280;70472;47.592;17.640;2023-07-24T01:20:17;99436.16;;;22.92;79.35
81005;BME280;70472;47.592;17.640;2023-07-24T01:20:56;99436.16;;;22.92;79.29
81005;BME280;70472;47.592;17.640;2023-07-24T01:21:48;99436.16;;;22.92;78.29
81005;BME280;70472;47.592;17.640;2023-07-24T01:24:25;99432.59;;;22.92;79.12
81005;BME280;70472;47.592;17.640;2023-07-24T01:25:35;99434.81;;;22.95;78.30
81005;BME280;70472;47.592;17.640;2023-07-24T01:26:08;99435.88;;;22.94;79.70
81005;BME280;70472;47.592;17.640;2023-07-24T01:26:41;99432.91;;;22.96;78.28
81005;BME280;70472;47.592;17.640;2023-07-24T01:28:00;99436.69;;;22.89;79.72
81005;BME280;70472;47.592;17.640;2023-07-24T01:29:05;99431.72;;;22.86;78.54
81005;BME280;70472;47.592;17.640;2023-07-24T01:29:37;99432.81;;;22.85;78.94
81005;BME280;70472;47.592;17.640;2023-07-24T01:30:12;99427.66;;;22.89;79.63
81005;BME280;70472;47.592;17.640;2023-07-24T01:30:44;99428.16;;;22.86;79.49
81005;BME280;70472;47.592;17.640;2023-07-24T01:31:17;99430.56;;;22.82;79.05
81005;BME280;70472;47.592;17.640;2023-07-24T01:31:49;99434.16;;;22.83;80.02
81005;BME280;70472;47.592;17.640;2023-07-24T01:32:22;99424.03;;;22.83;80.16
81005;BME280;70472;47.592;17.640;2023-07-24T01:32:54;99430.56;;;22.82;79.71
81005;BME280;70472;47.592;17.640;2023-07-24T01:33:27;99428.94;;;22.81;79.87
81005;BME280;70472;47.592;17.640;2023-07-24T01:33:59;99427.84;;;22.82;79.63
81005;BME280;70472;47.592;17.640;2023-07-24T01:34:32;99423.22;;;22.83;79.52
81005;BME280;70472;47.592;17.640;2023-07-24T01:35:05;99424.03;;;22.83;79.42
81005;BME280;70472;47.592;17.640;2023-07-24T01:35:38;99427.84;;;22.82;79.79
81005;BME280;70472;47.592;17.640;2023-07-24T01:36:13;99425.09;;;22.82;79.92
81005;BME280;70472;47.592;17.640;2023-07-24T01:36:47;99428.41;;;22.84;78.90
81005;BME280;70472;47.592;17.640;2023-07-24T01:37:21;99424.09;;;22.88;79.27
81005;BME280;70472;47.592;17.640;2023-07-24T01:38:31;99424.59;;;22.85;78.89
81005;BME280;70472;47.592;17.640;2023-07-24T01:39:07;99424.34;;;22.87;79.83
81005;BME280;70472;47.592;17.640;2023-07-24T01:39:41;99426.81;;;22.88;79.70
81005;BME280;70472;47.592;17.640;2023-07-24T01:40:15;99427.91;;;22.87;79.48
81005;BME280;70472;47.592;17.640;2023-07-24T01:40:48;99425.69;;;22.84;78.94
81005;BME280;70472;47.592;17.640;2023-07-24T01:41:22;99428.97;;;22.86;79.11
81005;BME280;70472;47.592;17.640;2023-07-24T01:41:56;99422.44;;;22.87;79.73
81005;BME280;70472;47.592;17.640;2023-07-24T01:42:28;99424.09;;;22.88;79.23
81005;BME280;70472;47.592;17.640;2023-07-24T01:43:01;99436.69;;;22.89;78.90
81005;BME280;70472;47.592;17.640;2023-07-24T01:43:34;99434.78;;;22.90;79.64
81005;BME280;70472;47.592;17.640;2023-07-24T01:44:06;99430.56;;;22.82;79.66
81005;BME280;70472;47.592;17.640;2023-07-24T01:44:39;99437.41;;;22.80;79.69
81005;BME280;70472;47.592;17.640;2023-07-24T01:45:12;99431.66;;;22.81;79.02
81005;BME280;70472;47.592;17.640;2023-07-24T01:45:44;99432.25;;;22.83;79.97
81005;BME280;70472;47.592;17.640;2023-07-24T01:46:17;99419.91;;;22.81;79.59
81005;BME280;70472;47.592;17.640;2023-07-24T01:46:49;99422.38;;;22.82;78.84
81005;BME280;70472;47.592;17.640;2023-07-24T01:47:22;99424.00;;;22.78;80.16
81005;BME280;70472;47.592;17.640;2023-07-24T01:47:55;99427.59;;;22.84;78.75
81005;BME280;70472;47.592;17.640;2023-07-24T01:48:27;99433.88;;;22.84;78.78
81005;BME280;70472;47.592;17.640;2023-07-24T01:48:59;99422.31;;;22.72;79.28
81005;BME280;70472;47.592;17.640;2023-07-24T01:49:32;99423.44;;;22.76;79.42
81005;BME280;70472;47.592;17.640;2023-07-24T01:50:05;99427.84;;;22.77;79.96
81005;BME280;70472;47.592;17.640;2023-07-24T01:50:37;99431.63;;;22.76;79.31
81005;BME280;70472;47.592;17.640;2023-07-24T01:51:10;99422.88;;;22.74;80.00
81005;BME280;70472;47.592;17.640;2023-07-24T01:51:42;99423.97;;;22.73;79.47
81005;BME280;70472;47.592;17.640;2023-07-24T01:52:15;99420.09;;;22.69;80.61
81005;BME280;70472;47.592;17.640;2023-07-24T01:52:47;99418.19;;;22.70;79.67
81005;BME280;70472;47.592;17.640;2023-07-24T01:53:20;99418.50;;;22.73;79.98
81005;BME280;70472;47.592;17.640;2023-07-24T01:53:52;99420.44;;;22.78;79.98
81005;BME280;70472;47.592;17.640;2023-07-24T01:54:25;99414.13;;;22.72;80.54
81005;BME280;70472;47.592;17.640;2023-07-24T01:54:57;99413.59;;;22.75;79.70
81005;BME280;70472;47.592;17.640;2023-07-24T01:55:29;99418.47;;;22.68;79.75
81005;BME280;70472;47.592;17.640;2023-07-24T01:56:02;99410.81;;;22.70;80.92
81005;BME280;70472;47.592;17.640;2023-07-24T01:56:36;99416.28;;;22.70;79.56
81005;BME280;70472;47.592;17.640;2023-07-24T01:57:09;99424.47;;;22.70;80.30
81005;BME280;70472;47.592;17.640;2023-07-24T01:57:42;99417.63;;;22.67;79.90
81005;BME280;70472;47.592;17.640;2023-07-24T01:58:15;99419.59;;;22.72;80.78
81005;BME280;70472;47.592;17.640;2023-07-24T01:58:47;99421.50;;;22.72;80.16
81005;BME280;70472;47.592;17.640;2023-07-24T01:59:20;99420.09;;;22.69;79.89
81005;BME280;70472;47.592;17.640;2023-07-24T01:59:52;99422.06;;;22.74;80.03
81005;BME280;70472;47.592;17.640;2023-07-24T02:00:25;99419.06;;;22.75;80.27
81005;BME280;70472;47.592;17.640;2023-07-24T02:01:03;99421.25;;;22.73;80.35
81005;BME280;70472;47.592;17.640;2023-07-24T02:01:36;99411.94;;;22.74;79.85
81005;BME280;70472;47.592;17.640;2023-07-24T02:02:08;99409.75;;;22.76;80.01
81005;BME280;70472;47.592;17.640;2023-07-24T02:02:40;99416.59;;;22.74;79.46
81005;BME280;70472;47.592;17.640;2023-07-24T02:03:13;99413.53;;;22.70;80.43
81005;BME280;70472;47.592;17.640;2023-07-24T02:03:45;99414.59;;;22.64;81.05
81005;BME280;70472;47.592;17.640;2023-07-24T02:04:18;99415.13;;;22.61;79.92
81005;BME280;70472;47.592;17.640;2023-07-24T02:04:51;99418.69;;;22.61;79.88
81005;BME280;70472;47.592;17.640;2023-07-24T02:05:26;99412.41;;;22.61;80.94
81005;BME280;70472;47.592;17.640;2023-07-24T02:05:59;99414.03;;;22.62;81.33
81005;BME280;70472;47.592;17.640;2023-07-24T02:06:31;99411.88;;;22.64;80.00
81005;BME280;70472;47.592;17.640;2023-07-24T02:07:04;99411.88;;;22.64;79.86
81005;BME280;70472;47.592;17.640;2023-07-24T02:07:36;99412.69;;;22.64;80.20
81005;BME280;70472;47.592;17.640;2023-07-24T02:08:09;99415.72;;;22.68;80.73
81005;BME280;70472;47.592;17.640;2023-07-24T02:08:41;99410.25;;;22.68;80.43
81005;BME280;70472;47.592;17.640;2023-07-24T02:09:13;99406.41;;;22.64;80.10
81005;BME280;70472;47.592;17.640;2023-07-24T02:09:46;99412.09;;;22.57;81.03
81005;BME280;70472;47.592;17.640;2023-07-24T02:10:18;99401.38;;;22.51;81.35
81005;BME280;70472;47.592;17.640;2023-07-24T02:10:51;99400.06;;;22.58;80.87
81005;BME280;70472;47.592;17.640;2023-07-24T02:11:23;99398.47;;;22.62;80.96
81005;BME280;70472;47.592;17.640;2023-07-24T02:11:56;99402.56;;;22.65;80.41
81005;BME280;70472;47.592;17.640;2023-07-24T02:12:28;99402.56;;;22.65;79.71
81005;BME280;70472;47.592;17.640;2023-07-24T02:13:01;99398.47;;;22.62;80.35
81005;BME280;70472;47.592;17.640;2023-07-24T02:13:33;99407.47;;;22.63;80.28
81005;BME280;70472;47.592;17.640;2023-07-24T02:14:05;99403.09;;;22.62;80.97
81005;BME280;70472;47.592;17.640;2023-07-24T02:14:38;99405.03;;;22.61;80.00
81005;BME280;70472;47.592;17.640;2023-07-24T02:15:10;99393.53;;;22.59;81.29
81005;BME280;70472;47.592;17.640;2023-07-24T02:15:44;99401.97;;;22.58;80.27
81005;BME280;70472;47.592;17.640;2023-07-24T02:16:17;99396.22;;;22.54;80.77
81005;BME280;70472;47.592;17.640;2023-07-24T02:16:49;99400.88;;;22.59;80.42
81005;BME280;70472;47.592;17.640;2023-07-24T02:17:23;99405.22;;;22.50;80.81
81005;BME280;70472;47.592;17.640;2023-07-24T02:17:55;99401.38;;;22.51;81.30
81005;BME280;70472;47.592;17.640;2023-07-24T02:18:28;99400.88;;;22.59;80.95
81005;BME280;70472;47.592;17.640;2023-07-24T02:19:01;99397.09;;;22.60;80.60
81005;BME280;70472;47.592;17.640;2023-07-24T02:19:33;99398.16;;;22.59;80.95
81005;BME280;70472;47.592;17.640;2023-07-24T02:20:06;99396.00;;;22.61;81.03
81005;BME280;70472;47.592;17.640;2023-07-24T02:20:39;99401.16;;;22.57;81.11
81005;BME280;70472;47.592;17.640;2023-07-24T02:21:11;99398.16;;;22.59;80.97
81005;BME280;70472;47.592;17.640;2023-07-24T02:21:43;99404.19;;;22.61;80.20
81005;BME280;70472;47.592;17.640;2023-07-24T02:22:16;99398.44;;;22.57;81.23
81005;BME280;70472;47.592;17.640;2023-07-24T02:22:48;99398.16;;;22.59;80.96
81005;BME280;70472;47.592;17.640;2023-07-24T02:23:21;99401.75;;;22.59;80.01
81005;BME280;70472;47.592;17.640;2023-07-24T02:23:53;99394.91;;;22.62;80.96
81005;BME280;70472;47.592;17.640;2023-07-24T02:24:26;99395.72;;;22.62;80.92
81005;BME280;70472;47.592;17.640;2023-07-24T02:24:58;99401.75;;;22.64;79.52
81005;BME280;70472;47.592;17.640;2023-07-24T02:25:32;99396.56;;;22.63;79.81
81005;BME280;70472;47.592;17.640;2023-07-24T02:26:06;99387.22;;;22.54;80.50
81005;BME280;70472;47.592;17.640;2023-07-24T02:26:39;99389.66;;;22.55;81.29
81005;BME280;70472;47.592;17.640;2023-07-24T02:27:13;99393.78;;;22.58;80.28
81005;BME280;70472;47.592;17.640;2023-07-24T02:27:56;99398.69;;;22.56;80.11
81005;BME280;70472;47.592;17.640;2023-07-24T02:28:28;99392.69;;;22.54;81.26
81005;BME280;70472;47.592;17.640;2023-07-24T02:29:01;99394.03;;;22.56;80.39
81005;BME280;70472;47.592;17.640;2023-07-24T02:29:33;99387.41;;;22.47;81.64
81005;BME280;70472;47.592;17.640;2023-07-24T02:30:06;99387.44;;;22.52;81.62
81005;BME280;70472;47.592;17.640;2023-07-24T02:30:40;99391.28;;;22.51;81.77
81005;BME280;70472;47.592;17.640;2023-07-24T02:31:12;99398.66;;;22.51;81.05
81005;BME280;70472;47.592;17.640;2023-07-24T02:31:44;99385.00;;;22.51;80.19
81005;BME280;70472;47.592;17.640;2023-07-24T02:32:17;99391.28;;;22.51;81.21
81005;BME280;70472;47.592;17.640;2023-07-24T02:32:49;99389.91;;;22.49;81.48
81005;BME280;70472;47.592;17.640;2023-07-24T02:33:22;99392.63;;;22.49;80.57
81005;BME280;70472;47.592;17.640;2023-07-24T02:33:54;99393.72;;;22.48;81.22
81005;BME280;70472;47.592;17.640;2023-07-24T02:34:27;99393.72;;;22.48;81.16
81005;BME280;70472;47.592;17.640;2023-07-24T02:34:59;99396.41;;;22.43;81.76
81005;BME280;70472;47.592;17.640;2023-07-24T02:35:37;99391.78;;;22.43;81.67
81005;BME280;70472;47.592;17.640;2023-07-24T02:36:10;99383.84;;;22.47;81.27
81005;BME280;70472;47.592;17.640;2023-07-24T02:36:42;99391.00;;;22.48;81.20
81005;BME280;70472;47.592;17.640;2023-07-24T02:37:14;99389.63;;;22.50;80.54
81005;BME280;70472;47.592;17.640;2023-07-24T02:37:47;99391.53;;;22.50;80.85
81005;BME280;70472;47.592;17.640;2023-07-24T02:38:19;99394.28;;;22.50;80.91
81005;BME280;70472;47.592;17.640;2023-07-24T02:38:52;99381.69;;;22.49;81.51
81005;BME280;70472;47.592;17.640;2023-07-24T02:39:24;99394.78;;;22.47;80.85
81005;BME280;70472;47.592;17.640;2023-07-24T02:39:58;99400.84;;;22.49;80.70
81005;BME280;70472;47.592;17.640;2023-07-24T02:40:32;99393.16;;;22.46;82.23
81005;BME280;70472;47.592;17.640;2023-07-24T02:41:04;99394.78;;;22.42;81.87
81005;BME280;70472;47.592;17.640;2023-07-24T02:41:36;99393.09;;;22.40;82.16
81005;BME280;70472;47.592;17.640;2023-07-24T02:42:09;99401.56;;;22.39;81.14
81005;BME280;70472;47.592;17.640;2023-07-24T02:42:41;99395.31;;;22.44;81.25
81005;BME280;70472;47.592;17.640;2023-07-24T02:43:14;99391.22;;;22.46;81.46
81005;BME280;70472;47.592;17.640;2023-07-24T02:43:46;99397.25;;;22.43;80.91
81005;BME280;70472;47.592;17.640;2023-07-24T02:44:18;99394.50;;;22.43;82.19
81005;BME280;70472;47.592;17.640;2023-07-24T02:44:51;99399.16;;;22.43;81.02
81005;BME280;70472;47.592;17.640;2023-07-24T02:45:23;99389.88;;;22.44;81.95
81005;BME280;70472;47.592;17.640;2023-07-24T02:46:01;99391.47;;;22.39;81.38
81005;BME280;70472;47.592;17.640;2023-07-24T02:46:33;99396.09;;;22.39;81.73
81005;BME280;70472;47.592;17.640;2023-07-24T02:47:06;99387.91;;;22.39;81.39
81005;BME280;70472;47.592;17.640;2023-07-24T02:47:38;99394.78;;;22.42;81.44
81005;BME280;70472;47.592;17.640;2023-07-24T02:48:11;99389.31;;;22.42;80.83
81005;BME280;70472;47.592;17.640;2023-07-24T02:48:43;99389.31;;;22.42;81.05
81005;BME280;70472;47.592;17.640;2023-07-24T02:49:16;99388.50;;;22.46;81.63
81005;BME280;70472;47.592;17.640;2023-07-24T02:49:48;99391.22;;;22.46;81.51
81005;BME280;70472;47.592;17.640;2023-07-24T02:50:20;99386.59;;;22.47;80.43
81005;BME280;70472;47.592;17.640;2023-07-24T02:50:53;99398.59;;;22.46;81.66
81005;BME280;70472;47.592;17.640;2023-07-24T02:51:25;99389.03;;;22.43;81.60
81005;BME280;70472;47.592;17.640;2023-07-24T02:51:58;99389.31;;;22.47;80.86
81005;BME280;70472;47.592;17.640;2023-07-24T02:52:30;99396.38;;;22.37;81.39
81005;BME280;70472;47.592;17.640;2023-07-24T02:53:02;99393.09;;;22.40;82.14
81005;BME280;70472;47.592;17.640;2023-07-24T02:53:35;99395.59;;;22.42;81.94
81005;BME280;70472;47.592;17.640;2023-07-24T02:54:07;99401.63;;;22.44;81.10
81005;BME280;70472;47.592;17.640;2023-07-24T02:54:39;99388.78;;;22.45;80.72
81005;BME280;70472;47.592;17.640;2023-07-24T02:55:12;99393.38;;;22.39;81.28
81005;BME280;70472;47.592;17.640;2023-07-24T02:55:44;99393.66;;;22.37;81.71
81005;BME280;70472;47.592;17.640;2023-07-24T02:56:16;99400.19;;;22.36;81.88
81005;BME280;70472;47.592;17.640;2023-07-24T02:56:49;99390.91;;;22.37;81.06
81005;BME280;70472;47.592;17.640;2023-07-24T02:57:21;99389.00;;;22.38;81.99
81005;BME280;70472;47.592;17.640;2023-07-24T02:57:54;99391.19;;;22.36;81.03
81005;BME280;70472;47.592;17.640;2023-07-24T02:58:26;99389.81;;;22.38;81.36
81005;BME280;70472;47.592;17.640;2023-07-24T02:58:58;99388.72;;;22.39;80.88
81005;BME280;70472;47.592;17.640;2023-07-24T02:59:31;99386.00;;;22.39;80.87